Time;durP1;ratioP1;P1;durP2;ratioP2;P2;SDS_P1;SDS_P2;PMS_P1;PMS_P2;Temp;Humidity;BMP_temperature;BMP_pressure;BME280_temperature;BME280_humidity;BME280_pressure;Samples;Min_cycle;Max_cycle;Signal;HPM_P1;HPM_P2
2023/01/19 00:01:43;;;;;;;17.23;15.43;;;;;;;-2.24;96.55;98694.78;10510321;28;20071;-74
2023/01/19 00:06:45;;;;;;;17.40;15.07;;;;;;;-2.34;96.53;98688.81;10505948;28;20518;-73
2023/01/19 00:11:47;;;;;;;17.25;15.30;;;;;;;-2.31;97.01;98696.50;10505832;28;20033;-74
2023/01/19 00:16:48;;;;;;;24.33;16.10;;;;;;;-2.52;97.86;98691.41;10490937;28;20045;-74
2023/01/19 00:21:50;;;;;;;18.00;16.20;;;;;;;-2.61;98.95;98692.25;10508265;28;20044;-73
2023/01/19 00:26:52;;;;;;;22.02;17.90;;;;;;;-2.63;98.81;98701.69;10510136;28;20045;-74
2023/01/19 00:31:54;;;;;;;23.83;17.73;;;;;;;-2.64;98.35;98707.69;10508318;28;20507;-74
2023/01/19 00:36:55;;;;;;;25.52;17.65;;;;;;;-2.68;98.94;98713.69;10509783;28;20491;-75
2023/01/19 00:47:17;;;;;;;24.63;17.15;;;;;;;-2.48;98.26;98720.53;10509613;28;20386;-73
2023/01/19 00:52:19;;;;;;;18.98;16.85;;;;;;;-2.76;98.86;98735.13;10502512;28;20052;-73
2023/01/19 00:57:21;;;;;;;20.20;17.00;;;;;;;-2.82;99.07;98743.69;10503270;28;20048;-73
2023/01/19 01:02:22;;;;;;;17.80;15.95;;;;;;;-2.91;100.00;98746.25;10502404;28;20063;-73
2023/01/19 01:07:24;;;;;;;22.30;17.20;;;;;;;-2.63;97.05;98745.41;10508858;28;20040;-73
2023/01/19 01:12:27;;;;;;;23.05;16.23;;;;;;;-2.88;98.06;98744.56;10488406;28;20059;-74
2023/01/19 01:17:29;;;;;;;16.88;14.98;;;;;;;-3.10;98.98;98751.38;10488464;28;20048;-73
2023/01/19 01:22:30;;;;;;;16.75;13.98;;;;;;;-3.01;98.49;98754.78;10505752;28;20048;-73
2023/01/19 01:27:32;;;;;;;20.20;14.80;;;;;;;-3.07;97.66;98759.06;10508442;28;20040;-74
2023/01/19 01:32:34;;;;;;;21.52;16.23;;;;;;;-3.09;97.90;98757.38;10505956;28;20051;-74
2023/01/19 01:37:36;;;;;;;17.48;15.65;;;;;;;-3.06;97.98;98760.78;10506559;28;20052;-73
2023/01/19 01:42:39;;;;;;;16.70;14.88;;;;;;;-3.23;98.49;98754.75;10487557;28;20045;-73
2023/01/19 01:47:46;;;;;;;15.88;13.40;;;;;;;-3.11;97.42;98766.78;10504437;28;20033;-73
2023/01/19 01:53:13;;;;;;;17.17;15.30;;;;;;;-3.36;97.58;98768.44;10508729;28;20042;-72
2023/01/19 01:58:15;;;;;;;22.83;13.90;;;;;;;-3.43;97.97;98772.66;10505231;28;20294;-73
2023/01/19 02:03:17;;;;;;;15.80;13.45;;;;;;;-3.51;98.18;98774.34;10503978;28;20048;-73
2023/01/19 02:13:47;;;;;;;11.52;10.25;;;;;;;-3.50;97.47;98782.91;10485190;28;20059;-72
2023/01/19 02:18:49;;;;;;;14.45;12.00;;;;;;;-3.57;96.18;98776.91;10500456;28;20052;-72
2023/01/19 02:23:52;;;;;;;12.40;10.75;;;;;;;-3.69;96.80;98787.97;10500497;28;20055;-72
2023/01/19 02:28:59;;;;;;;12.27;11.18;;;;;;;-3.43;95.61;98788.09;10500044;28;20040;-72
2023/01/19 02:34:02;;;;;;;11.68;9.93;;;;;;;-3.57;94.27;98798.28;10500904;28;20046;-73
2023/01/19 02:39:07;;;;;;;13.52;10.45;;;;;;;-3.54;93.97;98802.59;10499705;28;20055;-73
2023/01/19 02:44:11;;;;;;;12.00;10.80;;;;;;;-3.67;92.02;98804.25;10502493;28;20064;-73
2023/01/19 02:49:13;;;;;;;13.05;11.85;;;;;;;-3.84;93.27;98798.16;10503036;28;20063;-74
2023/01/19 02:54:41;;;;;;;13.02;11.75;;;;;;;-3.76;94.72;98796.50;10506123;28;20086;-73
2023/01/19 03:00:22;;;;;;;14.52;12.10;;;;;;;-3.96;93.97;98804.06;10486468;28;20435;-74
2023/01/19 03:05:48;;;;;;;13.95;10.63;;;;;;;-4.12;92.52;98809.94;10375308;28;20054;-73
2023/01/19 03:11:02;;;;;;;14.75;10.13;;;;;;;-4.26;92.05;98809.84;10379014;28;20136;-73
2023/01/19 03:16:25;;;;;;;11.20;9.82;;;;;;;-4.48;94.14;98810.50;10375064;28;20526;-73
2023/01/19 03:21:29;;;;;;;11.90;10.43;;;;;;;-4.46;93.56;98806.25;10371953;28;20085;-73
2023/01/19 03:26:36;;;;;;;11.75;10.52;;;;;;;-4.61;94.42;98814.66;10372103;28;20062;-74
2023/01/19 03:31:40;;;;;;;12.02;10.80;;;;;;;-4.91;96.79;98830.63;10372279;28;20439;-73
2023/01/19 03:36:49;;;;;;;16.23;11.32;;;;;;;-4.91;97.48;98828.06;10488764;28;20072;-73
2023/01/19 03:41:56;;;;;;;12.75;11.48;;;;;;;-4.96;99.00;98833.09;10489680;28;20485;-73
2023/01/19 03:46:59;;;;;;;16.77;8.80;;;;;;;-4.64;99.02;98830.03;10489344;28;20055;-73
2023/01/19 03:52:00;;;;;;;8.55;7.63;;;;;;;-4.48;98.26;98841.28;10488797;28;20278;-73
2023/01/19 03:57:02;;;;;;;10.27;9.20;;;;;;;-4.38;97.84;98833.69;10506665;28;20051;-73
2023/01/19 04:02:04;;;;;;;10.95;7.45;;;;;;;-4.30;95.64;98831.19;10508142;28;20036;-73
2023/01/19 04:07:05;;;;;;;11.02;7.07;;;;;;;-4.16;93.66;98836.41;10506139;28;20044;-73
2023/01/19 04:12:08;;;;;;;13.32;6.72;;;;;;;-3.97;92.01;98850.28;10506308;28;20456;-75
2023/01/19 04:17:09;;;;;;;6.45;5.85;;;;;;;-3.89;90.14;98853.75;10511854;28;20048;-74
2023/01/19 04:22:11;;;;;;;8.32;5.95;;;;;;;-4.03;90.22;98856.19;10511984;28;20044;-73
2023/01/19 04:27:15;;;;;;;9.32;5.28;;;;;;;-4.02;90.03;98839.13;10510093;28;20052;-73
2023/01/19 04:32:16;;;;;;;6.78;4.90;;;;;;;-3.94;87.86;98846.03;10510371;28;20044;-74
2023/01/19 04:37:18;;;;;;;6.78;5.68;;;;;;;-4.06;88.25;98839.09;10549174;22;20059;-71
2023/01/19 04:42:20;;;;;;;6.68;4.68;;;;;;;-4.09;88.26;98833.91;10509701;28;20043;-71
2023/01/19 04:47:22;;;;;;;5.45;4.78;;;;;;;-3.98;86.21;98844.28;10511396;28;20132;-71
2023/01/19 04:52:24;;;;;;;6.07;5.10;;;;;;;-4.08;86.13;98848.47;10489115;28;20049;-71
2023/01/19 04:57:26;;;;;;;7.13;5.00;;;;;;;-4.02;85.43;98842.53;10490135;28;20047;-72
2023/01/19 05:02:28;;;;;;;6.25;4.40;;;;;;;-4.13;85.27;98844.16;10510718;28;20044;-72
2023/01/19 05:07:30;;;;;;;8.23;4.57;;;;;;;-4.15;85.33;98844.16;10493121;28;20044;-72
2023/01/19 05:12:33;;;;;;;7.22;5.18;;;;;;;-4.17;85.01;98840.69;10511448;28;20102;-71
2023/01/19 05:17:35;;;;;;;4.78;4.22;;;;;;;-4.06;83.42;98846.78;10492987;28;20045;-72
2023/01/19 05:22:38;;;;;;;4.97;4.00;;;;;;;-4.06;82.95;98841.66;10493557;28;20574;-72
2023/01/19 05:27:39;;;;;;;4.43;3.67;;;;;;;-4.08;82.67;98838.19;10509655;28;20068;-72
2023/01/19 05:32:41;;;;;;;4.32;3.40;;;;;;;-4.16;82.93;98829.59;10505724;28;20046;-71
2023/01/19 05:37:43;;;;;;;5.43;4.20;;;;;;;-4.33;84.45;98826.91;10487664;28;20059;-72
2023/01/19 05:42:45;;;;;;;4.07;3.67;;;;;;;-4.45;85.21;98828.50;10487652;28;20048;-72
2023/01/19 05:47:47;;;;;;;9.93;5.28;;;;;;;-4.67;86.10;98830.84;10504250;28;20048;-71
2023/01/19 05:52:48;;;;;;;5.10;3.83;;;;;;;-4.75;85.89;98827.34;10504685;28;20074;-71
2023/01/19 05:57:50;;;;;;;9.57;8.25;;;;;;;-4.82;87.45;98830.72;10503086;28;20482;-71
2023/01/19 06:02:52;;;;;;;7.97;7.22;;;;;;;-4.86;87.58;98832.38;10484595;28;20048;-71
2023/01/19 06:07:56;;;;;;;6.72;5.13;;;;;;;-4.99;88.10;98839.94;10501616;28;20053;-71
2023/01/19 06:12:57;;;;;;;4.93;3.90;;;;;;;-4.83;87.08;98834.09;10503447;28;20050;-70
2023/01/19 06:17:59;;;;;;;4.68;3.88;;;;;;;-4.79;84.46;98840.13;10503752;28;20076;-69
2023/01/19 06:23:02;;;;;;;4.43;3.33;;;;;;;-4.81;84.44;98850.38;10503738;28;20040;-71
2023/01/19 06:28:04;;;;;;;5.18;4.03;;;;;;;-4.67;82.71;98859.06;10503076;28;20048;-72
2023/01/19 06:33:08;;;;;;;4.95;3.38;;;;;;;-4.65;82.51;98870.22;10485646;28;20144;-72
2023/01/19 06:38:15;;;;;;;5.28;3.97;;;;;;;-4.77;84.01;98871.78;10450017;28;20529;-72
2023/01/19 06:43:19;;;;;;;4.82;3.90;;;;;;;-4.74;83.85;98882.91;10501840;28;20044;-73
2023/01/19 06:48:21;;;;;;;6.40;4.18;;;;;;;-4.84;84.21;98881.09;10484584;28;20041;-72
2023/01/19 06:53:23;;;;;;;6.97;4.55;;;;;;;-4.89;82.24;98882.75;10490104;28;20094;-73
2023/01/19 06:58:24;;;;;;;5.05;4.15;;;;;;;-4.63;81.50;98889.00;10485574;28;20410;-72
2023/01/19 07:03:26;;;;;;;4.63;3.72;;;;;;;-4.63;81.68;98889.00;10485218;28;20430;-72
2023/01/19 07:08:29;;;;;;;8.02;4.47;;;;;;;-4.71;82.64;98900.03;10503191;28;20063;-73
2023/01/19 07:13:32;;;;;;;6.18;5.15;;;;;;;-4.78;83.34;98894.00;10492729;28;20047;-72
2023/01/19 07:18:36;;;;;;;7.55;4.40;;;;;;;-4.85;83.55;98898.19;10491513;28;20071;-73
2023/01/19 07:23:37;;;;;;;5.30;4.05;;;;;;;-4.68;83.01;98903.50;10511062;28;20089;-72
2023/01/19 07:28:40;;;;;;;4.95;3.80;;;;;;;-4.46;82.19;98904.59;10491467;28;20061;-73
2023/01/19 07:33:42;;;;;;;5.53;5.00;;;;;;;-4.46;83.48;98909.72;10491458;28;20051;-73
2023/01/19 07:38:44;;;;;;;6.80;5.65;;;;;;;-4.19;82.45;98918.53;10508721;28;20048;-72
2023/01/19 07:43:46;;;;;;;6.95;5.57;;;;;;;-4.26;82.56;98927.00;10488195;28;20045;-73
2023/01/19 07:48:47;;;;;;;8.73;5.45;;;;;;;-4.00;81.35;98934.94;10506298;28;20036;-73
2023/01/19 07:53:50;;;;;;;5.18;4.68;;;;;;;-4.11;82.67;98929.72;10505606;28;20098;-73
2023/01/19 07:58:52;;;;;;;5.70;5.10;;;;;;;-3.98;82.45;98931.56;10488373;28;20040;-72
2023/01/19 08:03:54;;;;;;;4.80;4.40;;;;;;;-3.78;80.52;98938.53;10487756;28;20043;-73
2023/01/19 08:08:56;;;;;;;4.72;3.55;;;;;;;-3.61;79.01;98942.09;10489741;28;20047;-72
2023/01/19 08:13:58;;;;;;;7.60;3.63;;;;;;;-3.50;78.69;98935.31;10506074;28;20045;-72
2023/01/19 08:19:00;;;;;;;5.07;3.17;;;;;;;-3.26;76.75;98938.91;10488413;28;20046;-73
2023/01/19 08:24:02;;;;;;;7.32;4.03;;;;;;;-3.11;76.19;98945.00;10486300;28;20040;-73
2023/01/19 08:29:04;;;;;;;5.70;3.88;;;;;;;-2.76;74.53;98940.88;10505580;28;20405;-73
2023/01/19 08:34:07;;;;;;;6.95;4.68;;;;;;;-2.76;75.99;98946.03;10506191;28;20049;-73
2023/01/19 08:39:11;;;;;;;4.50;3.58;;;;;;;-2.68;75.79;98954.63;10505441;28;20119;-73
2023/01/19 08:44:12;;;;;;;8.23;3.63;;;;;;;-2.34;74.27;98956.47;10504132;28;20504;-72
2023/01/19 08:49:14;;;;;;;4.63;3.35;;;;;;;-2.42;75.70;98959.88;10504140;28;20070;-73
2023/01/19 08:54:16;;;;;;;4.95;3.60;;;;;;;-2.03;74.22;98957.38;10486134;28;20079;-74
2023/01/19 08:59:19;;;;;;;5.25;3.58;;;;;;;-2.04;75.52;98954.78;10502820;28;20095;-73
2023/01/19 09:04:22;;;;;;;4.25;3.75;;;;;;;-2.00;75.84;98961.66;10504037;28;20106;-73
2023/01/19 09:09:24;;;;;;;50.80;27.58;;;;;;;-1.88;76.13;98959.09;10502462;28;20037;-74
2023/01/19 09:14:25;;;;;;;66.38;26.80;;;;;;;-1.77;76.57;98956.56;10502427;28;20048;-73
2023/01/19 09:19:27;;;;;;;30.25;13.18;;;;;;;-1.64;76.47;98947.09;10502169;28;20036;-72
2023/01/19 09:24:29;;;;;;;75.05;23.83;;;;;;;-1.08;74.88;98952.16;10502680;28;20045;-73
2023/01/19 09:29:31;;;;;;;7.45;5.20;;;;;;;-0.62;71.60;98964.94;10484270;28;20486;-73
2023/01/19 09:34:32;;;;;;;4.22;3.13;;;;;;;-0.65;72.67;98961.50;10500498;28;20044;-75
2023/01/19 09:39:35;;;;;;;3.58;3.00;;;;;;;-0.62;73.76;98962.38;10502345;28;20387;-73
2023/01/19 09:44:39;;;;;;;5.38;4.18;;;;;;;-0.70;73.79;98951.22;10502309;28;20559;-75
2023/01/19 09:49:44;;;;;;;4.13;3.67;;;;;;;-0.51;74.02;98958.00;10467156;28;20037;-73
2023/01/19 09:54:55;;;;;;;5.68;5.05;;;;;;;-0.29;73.13;98950.16;10503656;28;20047;-73
2023/01/19 09:59:58;;;;;;;4.68;3.90;;;;;;;0.06;71.07;98952.50;10483812;28;20044;-74
2023/01/19 10:05:13;;;;;;;4.88;3.53;;;;;;;-0.22;72.35;98949.25;10484255;28;20551;-74
2023/01/19 10:10:17;;;;;;;19.55;11.50;;;;;;;-0.34;73.84;98954.47;10499346;28;20036;-74
2023/01/19 10:15:31;;;;;;;12.25;8.18;;;;;;;-0.39;74.56;98946.75;10500820;28;20509;-73
2023/01/19 10:20:40;;;;;;;5.15;4.15;;;;;;;-0.19;73.73;98949.22;10483089;28;20052;-73
2023/01/19 10:25:42;;;;;;;9.43;6.00;;;;;;;0.16;75.66;98935.22;10482147;28;20048;-73
2023/01/19 10:30:46;;;;;;;6.07;5.30;;;;;;;-0.13;76.31;98943.19;10481842;28;20082;-74
2023/01/19 10:35:49;;;;;;;9.30;8.60;;;;;;;-0.16;74.31;98938.88;10470393;22;20053;-73
2023/01/19 10:41:03;;;;;;;4.95;4.32;;;;;;;-0.08;74.80;98942.28;10451651;28;20441;-74
2023/01/19 10:46:16;;;;;;;11.75;6.45;;;;;;;0.15;75.55;98938.69;10439487;28;20409;-73
2023/01/19 10:51:18;;;;;;;5.78;4.40;;;;;;;0.18;75.08;98926.59;10457265;28;20090;-74
2023/01/19 10:56:23;;;;;;;14.65;7.80;;;;;;;-0.05;78.70;98931.91;10438620;28;20048;-74
2023/01/19 11:01:27;;;;;;;10.68;8.93;;;;;;;0.15;78.85;98928.34;10459988;28;20095;-74
2023/01/19 11:06:30;;;;;;;8.88;7.97;;;;;;;0.34;76.35;98936.78;10456144;28;20482;-74
2023/01/19 11:11:40;;;;;;;9.02;7.50;;;;;;;1.10;76.40;98933.47;10456504;28;20041;-75
2023/01/19 11:16:48;;;;;;;7.50;6.63;;;;;;;2.51;70.18;98936.66;10458174;28;20037;-74
2023/01/19 11:21:51;;;;;;;10.93;5.90;;;;;;;3.83;61.82;98923.72;10458157;28;20087;-74
2023/01/19 11:27:01;;;;;;;5.18;4.63;;;;;;;4.75;57.82;98932.78;10460583;28;20088;-74
2023/01/19 11:32:18;;;;;;;6.40;4.75;;;;;;;5.11;55.11;98923.13;10458095;28;20079;-73
2023/01/19 11:37:19;;;;;;;5.50;4.87;;;;;;;5.05;55.82;98924.16;10459517;28;20033;-73
2023/01/19 11:42:21;;;;;;;6.18;4.43;;;;;;;4.77;57.93;98928.38;10466180;28;20032;-73
2023/01/19 11:47:28;;;;;;;4.90;3.80;;;;;;;4.45;57.44;98932.66;10460720;28;20410;-73
2023/01/19 11:52:45;;;;;;;8.43;3.77;;;;;;;3.80;59.16;98930.69;10456430;28;20041;-73
2023/01/19 11:57:48;;;;;;;;;;;;;;;3.45;58.95;98934.06;10461236;28;20048;-71
2023/01/19 12:03:00;;;;;;;5.07;3.55;;;;;;;3.97;58.74;98939.84;10455933;28;19920;-71
2023/01/19 12:08:05;;;;;;;3.72;2.45;;;;;;;3.78;55.03;98936.81;10468848;28;20409;-70
2023/01/19 12:13:20;;;;;;;2.45;2.20;;;;;;;3.06;59.67;98930.50;10466645;28;20040;-70
2023/01/19 12:18:27;;;;;;;3.40;2.50;;;;;;;3.36;58.02;98929.03;10470592;28;20410;-71
2023/01/19 12:23:54;;;;;;;2.67;2.22;;;;;;;3.18;59.19;98934.59;10466691;28;20204;-71
2023/01/19 12:29:02;;;;;;;3.45;2.10;;;;;;;3.44;56.57;98923.69;10447878;28;20490;-70
2023/01/19 12:34:30;;;;;;;2.60;2.38;;;;;;;3.17;59.25;98928.53;10462863;28;20060;-70
2023/01/19 12:39:34;;;;;;;3.70;2.53;;;;;;;2.72;60.08;98925.94;10462610;28;20044;-70
2023/01/19 12:44:36;;;;;;;3.63;2.78;;;;;;;2.50;60.56;98925.44;10462716;28;20057;-70
2023/01/19 12:49:37;;;;;;;4.57;2.60;;;;;;;2.44;61.00;98919.50;10464999;28;20055;-69
2023/01/19 12:54:48;;;;;;;8.95;6.47;;;;;;;2.26;61.65;98918.94;10463931;28;20052;-69
2023/01/19 13:00:19;;;;;;;5.18;3.60;;;;;;;2.09;63.16;98920.94;10438028;28;20075;-69
2023/01/19 13:05:41;;;;;;;7.40;4.72;;;;;;;2.07;60.93;98920.09;10445597;28;20045;-68
2023/01/19 13:10:52;;;;;;;9.30;8.10;;;;;;;2.06;61.55;98913.19;10462999;28;20102;-69
2023/01/19 13:15:57;;;;;;;5.88;3.78;;;;;;;2.12;61.71;98905.31;10463930;28;20070;-68
2023/01/19 13:21:03;;;;;;;9.02;7.70;;;;;;;1.92;63.25;98900.44;10443446;28;20401;-69
2023/01/19 13:26:10;;;;;;;4.07;3.58;;;;;;;1.91;62.67;98893.56;10461277;28;20104;-69
2023/01/19 13:31:13;;;;;;;4.93;3.50;;;;;;;1.93;61.48;98899.56;10443544;28;20135;-69
2023/01/19 13:36:29;;;;;;;8.95;4.90;;;;;;;1.92;62.14;98900.44;10462619;28;20082;-68
2023/01/19 13:41:36;;;;;;;5.20;4.15;;;;;;;1.65;63.15;98906.88;10460456;28;20040;-70
2023/01/19 13:46:38;;;;;;;3.85;2.85;;;;;;;1.75;63.78;98908.47;10460478;28;20048;-70
2023/01/19 13:51:40;;;;;;;6.40;3.55;;;;;;;1.71;63.12;98913.72;10460572;28;20037;-69
2023/01/19 13:56:48;;;;;;;8.95;8.15;;;;;;;1.69;63.97;98907.72;10462428;28;20045;-70
2023/01/19 14:01:52;;;;;;;4.47;4.05;;;;;;;1.49;64.72;98914.00;10441650;28;20037;-70
2023/01/19 14:07:03;;;;;;;4.15;2.83;;;;;;;1.46;64.98;98915.75;10461035;28;20059;-70
2023/01/19 14:12:13;;;;;;;4.45;3.60;;;;;;;1.50;64.70;98902.75;10461729;28;20043;-70
2023/01/19 14:17:21;;;;;;;4.35;3.08;;;;;;;1.36;65.56;98922.78;10462635;28;20043;-70
2023/01/19 14:22:43;;;;;;;7.30;4.38;;;;;;;1.24;67.17;98921.22;10441595;28;20044;-70
2023/01/19 14:27:45;;;;;;;8.07;5.15;;;;;;;1.31;66.04;98934.94;10458284;28;20056;-69
2023/01/19 14:32:46;;;;;;;5.60;4.82;;;;;;;1.36;66.49;98933.16;10460367;28;20029;-70
2023/01/19 14:37:50;;;;;;;5.63;4.63;;;;;;;0.95;68.33;98929.31;10462674;28;20074;-71
2023/01/19 14:42:56;;;;;;;5.47;4.70;;;;;;;0.78;69.14;98927.78;10463441;28;20041;-71
2023/01/19 14:48:11;;;;;;;6.82;5.22;;;;;;;0.52;70.25;98931.47;10442643;28;20512;-71
2023/01/19 14:53:24;;;;;;;6.07;4.50;;;;;;;0.59;69.66;98937.44;10459972;28;20045;-71
2023/01/19 14:58:30;;;;;;;5.55;5.05;;;;;;;0.68;69.68;98932.19;10460088;28;20052;-71
2023/01/19 15:03:32;;;;;;;6.07;5.32;;;;;;;0.65;69.10;98934.78;10462538;28;20056;-71
2023/01/19 15:08:49;;;;;;;;;;;;;;;0.54;69.73;98940.09;10427444;28;20410;-72
2023/01/19 15:13:51;;;;;;;12.23;11.05;;;;;;;0.32;70.96;98949.75;10458504;28;20370;-72
2023/01/19 15:18:52;;;;;;;10.00;7.53;;;;;;;0.15;71.75;98947.28;10440563;28;20410;-72
2023/01/19 15:23:54;;;;;;;13.25;10.82;;;;;;;-0.01;71.99;98954.25;10459126;28;20602;-72
2023/01/19 15:28:56;;;;;;;8.02;7.32;;;;;;;-0.22;73.25;98958.72;10457243;28;20049;-72
2023/01/19 15:33:58;;;;;;;8.57;6.90;;;;;;;-0.32;73.75;98969.09;10463943;28;20041;-72
2023/01/19 15:38:59;;;;;;;9.93;7.75;;;;;;;-0.41;74.25;98974.28;10464779;28;20115;-73
2023/01/19 15:44:02;;;;;;;6.97;6.28;;;;;;;-0.48;74.84;98974.34;10466490;28;20513;-72
2023/01/19 15:49:07;;;;;;;7.47;6.70;;;;;;;-0.64;75.97;98986.44;10464341;28;20041;-73
2023/01/19 15:54:13;;;;;;;7.30;6.55;;;;;;;-0.78;76.89;98981.34;10464283;28;20041;-73
2023/01/19 15:59:15;;;;;;;10.20;9.13;;;;;;;-0.54;75.53;98982.97;10464003;28;20040;-73
2023/01/19 16:04:16;;;;;;;10.82;8.52;;;;;;;-0.46;75.40;98982.94;10463846;28;20071;-72
2023/01/19 16:09:18;;;;;;;9.25;7.72;;;;;;;-0.50;75.51;98982.09;10469419;28;20378;-73
2023/01/19 16:14:20;;;;;;;12.57;9.13;;;;;;;-0.73;77.01;98989.91;10446882;28;20127;-73
2023/01/19 16:19:22;;;;;;;13.40;12.00;;;;;;;-0.90;77.31;98995.13;10464703;28;20409;-73
2023/01/19 16:24:24;;;;;;;9.13;8.15;;;;;;;-0.68;76.54;98997.66;10463732;28;20562;-73
2023/01/19 16:29:26;;;;;;;9.15;8.35;;;;;;;-0.72;75.78;98994.22;10469124;28;20111;-72
2023/01/19 16:39:44;;;;;;;8.57;7.75;;;;;;;-0.54;73.42;99009.63;10408035;28;20049;-77
2023/01/19 16:44:46;;;;;;;6.90;6.22;;;;;;;-0.35;72.42;99009.59;10401068;28;20059;-75
2023/01/19 16:49:47;;;;;;;6.40;5.75;;;;;;;-0.42;72.67;99007.88;10419725;28;20045;-76
2023/01/19 16:54:53;;;;;;;7.50;6.72;;;;;;;-0.45;72.40;99016.47;10401807;28;20042;-76
2023/01/19 16:59:55;;;;;;;6.63;5.55;;;;;;;-0.48;72.34;99021.69;10409375;28;20072;-76
2023/01/19 17:04:59;;;;;;;6.07;5.32;;;;;;;-0.40;71.82;99024.22;10400511;28;20054;-77
2023/01/19 17:10:00;;;;;;;7.18;6.55;;;;;;;-0.77;73.64;99024.34;10419050;28;20120;-77
2023/01/19 17:15:03;;;;;;;7.40;6.70;;;;;;;-1.03;74.78;99026.97;10420686;28;20037;-76
2023/01/19 17:20:05;;;;;;;8.68;7.55;;;;;;;-1.11;75.66;99037.28;10401498;28;20046;-76
2023/01/19 17:25:07;;;;;;;8.25;7.55;;;;;;;-0.83;74.35;99034.69;10385011;28;20454;-76
2023/01/19 17:30:09;;;;;;;9.40;8.48;;;;;;;-0.84;74.23;99038.97;10400775;28;20126;-76
2023/01/19 17:35:11;;;;;;;10.32;8.88;;;;;;;-1.14;75.47;99042.47;10417858;28;20044;-75
2023/01/19 17:40:13;;;;;;;10.40;9.40;;;;;;;-1.37;77.15;99046.75;10418117;28;20071;-77
2023/01/19 17:45:15;;;;;;;10.00;9.10;;;;;;;-1.28;77.56;99051.91;10416203;28;20475;-76
2023/01/19 17:50:20;;;;;;;9.30;8.50;;;;;;;-1.03;76.73;99050.16;10418382;28;20379;-77
2023/01/19 17:55:22;;;;;;;8.60;7.80;;;;;;;-0.93;76.25;99057.06;10417330;28;20045;-76
2023/01/19 18:00:24;;;;;;;8.98;8.07;;;;;;;-0.85;75.08;99057.88;10417167;28;20403;-77
2023/01/19 18:05:26;;;;;;;8.10;7.30;;;;;;;-0.80;75.77;99061.34;10416844;28;20037;-76
2023/01/19 18:10:27;;;;;;;7.43;6.70;;;;;;;-0.96;76.76;99069.09;10417200;28;20069;-76
2023/01/19 18:15:29;;;;;;;8.32;7.50;;;;;;;-0.54;74.95;99063.84;10399580;28;20593;-76
2023/01/19 18:20:31;;;;;;;8.35;7.60;;;;;;;-0.59;75.20;99065.56;10400129;28;20041;-77
2023/01/19 18:25:32;;;;;;;9.13;8.32;;;;;;;-0.77;76.20;99061.31;10416654;28;20046;-77
2023/01/19 18:30:36;;;;;;;10.32;7.88;;;;;;;-0.71;77.07;99050.09;10416296;28;20380;-76
2023/01/19 18:35:38;;;;;;;8.18;7.47;;;;;;;-0.73;77.44;99061.31;10416229;28;20124;-76
2023/01/19 18:40:40;;;;;;;9.38;6.82;;;;;;;-0.51;77.03;99065.56;10415092;28;20116;-76
2023/01/19 18:45:44;;;;;;;6.68;6.07;;;;;;;-0.24;76.02;99066.34;10417117;28;20044;-76
2023/01/19 18:50:46;;;;;;;6.70;5.88;;;;;;;-0.33;76.06;99067.22;10399131;28;20045;-76
2023/01/19 18:55:53;;;;;;;8.70;6.93;;;;;;;-0.29;76.82;99080.13;10398875;28;20046;-76
2023/01/19 19:00:55;;;;;;;10.73;7.53;;;;;;;-0.28;76.97;99081.84;10415257;28;20069;-76
2023/01/19 19:06:02;;;;;;;7.35;6.15;;;;;;;-0.18;76.74;99087.81;10419522;28;20513;-77
2023/01/19 19:11:07;;;;;;;6.32;5.63;;;;;;;-0.23;77.33;99088.72;10406345;28;20049;-78
2023/01/19 19:16:11;;;;;;;7.32;6.45;;;;;;;-0.36;78.47;99090.47;10406576;28;20055;-75
2023/01/19 19:21:13;;;;;;;15.38;10.23;;;;;;;-0.10;77.50;99092.97;10424129;28;20041;-76
2023/01/19 19:26:14;;;;;;;6.30;5.70;;;;;;;0.05;76.49;99100.66;10423701;28;20147;-75
2023/01/19 19:31:19;;;;;;;6.82;6.22;;;;;;;0.30;74.35;99103.97;10423430;28;20060;-76
2023/01/19 19:36:22;;;;;;;5.70;5.15;;;;;;;0.19;74.73;99104.03;10405637;28;20096;-75
2023/01/19 19:41:25;;;;;;;6.40;5.78;;;;;;;0.16;75.71;99104.03;10423297;28;20085;-76
2023/01/19 19:46:27;;;;;;;6.15;5.55;;;;;;;0.16;75.60;99108.34;10405220;28;20140;-76
2023/01/19 19:51:29;;;;;;;6.45;5.75;;;;;;;0.41;74.07;99114.28;10424398;28;20045;-76
2023/01/19 19:56:33;;;;;;;6.30;5.70;;;;;;;0.39;74.16;99116.00;10424275;28;20041;-78
2023/01/19 20:01:35;;;;;;;8.68;6.88;;;;;;;0.26;75.34;99122.94;10424580;28;20108;-77
2023/01/19 20:06:43;;;;;;;7.03;6.43;;;;;;;0.29;75.13;99120.34;10423803;28;20557;-76
2023/01/19 20:11:45;;;;;;;6.38;5.78;;;;;;;0.38;74.47;99124.63;10421817;28;20052;-76
2023/01/19 20:16:47;;;;;;;6.03;5.43;;;;;;;0.42;74.91;99131.50;10420435;28;20045;-75
2023/01/19 20:21:49;;;;;;;7.18;6.50;;;;;;;0.33;75.03;99132.41;10404641;28;20056;-76
2023/01/19 20:26:52;;;;;;;6.10;5.53;;;;;;;0.19;76.50;99136.78;10415281;28;20076;-76
2023/01/19 20:31:55;;;;;;;6.05;5.55;;;;;;;0.38;75.55;99135.81;10422090;28;20033;-77
2023/01/19 20:36:56;;;;;;;7.80;7.00;;;;;;;0.23;77.76;99144.50;10422446;28;20469;-76
2023/01/19 20:41:58;;;;;;;6.63;6.03;;;;;;;0.39;75.62;99145.28;10403549;28;20073;-76
2023/01/19 20:47:00;;;;;;;7.57;6.40;;;;;;;0.30;76.34;99150.50;10420966;28;20491;-76
2023/01/19 20:52:02;;;;;;;7.18;6.30;;;;;;;0.44;76.48;99156.50;10420733;28;20045;-76
2023/01/19 20:57:04;;;;;;;7.18;6.43;;;;;;;0.43;76.24;99154.75;10420365;28;20050;-76
2023/01/19 21:02:11;;;;;;;9.32;8.30;;;;;;;0.29;77.93;99161.72;10402194;28;20092;-76
2023/01/19 21:07:13;;;;;;;8.38;7.57;;;;;;;0.41;77.65;99166.84;10420783;28;20064;-76
2023/01/19 21:12:14;;;;;;;12.43;9.90;;;;;;;0.31;78.86;99178.09;10421105;28;20041;-76
2023/01/19 21:17:16;;;;;;;6.90;6.30;;;;;;;0.62;77.44;99175.31;10420207;28;20088;-76
2023/01/19 21:22:18;;;;;;;5.85;5.35;;;;;;;0.70;76.56;99179.59;10418822;28;20558;-77
2023/01/19 21:27:20;;;;;;;8.88;7.30;;;;;;;0.86;75.36;99182.09;10433736;28;20100;-76
2023/01/19 21:32:22;;;;;;;7.20;6.57;;;;;;;0.83;75.66;99193.31;10434043;28;20380;-76
2023/01/19 21:37:24;;;;;;;6.85;5.93;;;;;;;0.98;74.73;99198.41;10419033;28;20048;-76
2023/01/19 21:42:25;;;;;;;9.07;7.55;;;;;;;0.85;75.99;99191.59;10420034;28;20103;-76
2023/01/19 21:47:27;;;;;;;9.88;8.88;;;;;;;0.91;76.23;99188.09;10419647;28;20048;-76
2023/01/19 21:52:29;;;;;;;8.02;7.32;;;;;;;0.80;77.27;99201.13;10400910;28;20038;-76
2023/01/19 21:57:30;;;;;;;7.97;7.28;;;;;;;0.67;78.95;99205.50;10418133;28;20495;-74
2023/01/19 22:02:32;;;;;;;7.35;6.75;;;;;;;0.88;78.29;99208.81;10417289;28;20045;-75
2023/01/19 22:07:39;;;;;;;12.65;9.57;;;;;;;0.88;77.88;99209.66;10417338;28;20049;-75
2023/01/19 22:12:41;;;;;;;8.43;7.63;;;;;;;0.96;77.50;99210.47;10433001;28;20041;-76
2023/01/19 22:17:43;;;;;;;8.25;7.65;;;;;;;0.90;78.53;99210.53;10418566;28;20383;-76
2023/01/19 22:22:45;;;;;;;8.45;7.75;;;;;;;0.83;79.90;99221.78;10416283;28;20049;-75
2023/01/19 22:27:47;;;;;;;8.50;7.80;;;;;;;0.88;79.49;99221.75;10416814;28;20095;-75
2023/01/19 22:32:48;;;;;;;8.02;7.43;;;;;;;0.90;80.10;99223.47;10417683;28;20040;-76
2023/01/19 22:37:50;;;;;;;8.50;7.80;;;;;;;0.82;80.82;99227.81;10423227;23;20045;-72
2023/01/19 22:42:52;;;;;;;11.45;10.45;;;;;;;0.75;82.67;99227.00;10419255;28;20045;-72
2023/01/19 22:47:53;;;;;;;11.23;10.32;;;;;;;0.48;83.81;99230.56;10416227;28;20041;-72
2023/01/19 22:52:56;;;;;;;9.43;8.68;;;;;;;0.32;85.18;99234.09;10418536;28;20048;-73
2023/01/19 22:57:58;;;;;;;9.90;9.10;;;;;;;0.43;85.63;99239.22;10417401;28;20049;-72
2023/01/19 23:03:00;;;;;;;18.10;15.98;;;;;;;0.64;84.58;99226.19;10422632;28;20069;-72
2023/01/19 23:08:02;;;;;;;10.50;9.70;;;;;;;0.43;87.20;99228.88;10420984;28;20045;-72
2023/01/19 23:13:03;;;;;;;23.67;19.15;;;;;;;0.50;87.45;99233.16;10418054;28;20041;-73
2023/01/19 23:18:05;;;;;;;11.07;10.18;;;;;;;0.58;87.87;99226.22;10417659;28;20049;-73
2023/01/19 23:23:07;;;;;;;12.20;11.30;;;;;;;0.78;87.21;99222.69;10417028;28;20045;-72
2023/01/19 23:28:09;;;;;;;11.20;10.30;;;;;;;0.65;88.35;99232.22;10418887;28;20065;-73
2023/01/19 23:33:11;;;;;;;11.95;10.98;;;;;;;0.71;89.15;99238.25;10416296;28;20049;-73
2023/01/19 23:38:12;;;;;;;12.05;11.15;;;;;;;0.91;87.79;99232.94;10417129;28;20060;-72
2023/01/19 23:43:14;;;;;;;12.15;11.18;;;;;;;0.80;88.83;99226.09;10416048;28;20049;-72
2023/01/19 23:48:16;;;;;;;12.07;11.07;;;;;;;0.70;89.57;99223.56;10422882;28;20061;-72